createdAt,value
2022-08-22T00:01:20.943Z,4.17
2022-08-22T00:02:56.170Z,4.97
2022-08-22T00:03:12.459Z,4.40
2022-08-22T00:04:18.364Z,4.92
2022-08-22T00:07:02.089Z,4.95
2022-08-22T00:09:58.013Z,4.17
2022-08-22T00:12:50.547Z,4.33
2022-08-22T00:15:43.191Z,4.60
2022-08-22T00:18:28.585Z,4.42
2022-08-22T00:21:24.547Z,3.83
2022-08-22T00:24:11.498Z,4.75
2022-08-22T00:27:10.502Z,4.78
2022-08-22T00:29:48.280Z,4.92
2022-08-22T00:32:39.453Z,5.05
2022-08-22T00:35:16.679Z,4.72
2022-08-22T00:38:07.096Z,4.92
2022-08-22T00:40:57.438Z,4.70
2022-08-22T00:43:43.593Z,4.00
2022-08-22T00:46:51.710Z,4.35
2022-08-22T00:49:44.563Z,4.65
2022-08-22T00:52:28.145Z,5.78
2022-08-22T00:55:34.923Z,4.40
2022-08-22T00:58:44.915Z,4.33
2022-08-22T01:01:14.891Z,4.22
2022-08-22T01:03:55.287Z,4.50
2022-08-22T01:06:40.189Z,4.40
2022-08-22T01:09:29.979Z,4.60
2022-08-22T01:12:14.418Z,4.45
2022-08-22T01:15:03.360Z,4.40
2022-08-22T01:18:06.854Z,4.45
2022-08-22T01:21:20.744Z,4.30
2022-08-22T01:24:30.889Z,4.92
2022-08-22T01:27:35.783Z,5.03
2022-08-22T01:30:42.665Z,4.30
2022-08-22T01:33:55.841Z,3.83
2022-08-22T01:37:10.495Z,4.90
2022-08-22T01:40:24.681Z,3.92
2022-08-22T01:43:59.655Z,4.17
2022-08-22T01:46:07.598Z,4.00
2022-08-22T01:48:42.155Z,4.42
2022-08-22T01:51:25.030Z,4.03
2022-08-22T01:54:11.703Z,4.20
2022-08-22T01:56:44.552Z,4.37
2022-08-22T01:59:33.801Z,5.03
2022-08-22T02:02:24.413Z,4.22
2022-08-22T02:05:22.952Z,5.17
2022-08-22T02:07:58.451Z,4.37
2022-08-22T02:10:51.478Z,4.20
2022-08-22T02:13:46.533Z,4.30
2022-08-22T02:16:40.472Z,4.47
2022-08-22T02:19:21.134Z,4.17
2022-08-22T02:22:01.836Z,4.55
2022-08-22T02:24:57.570Z,4.00
2022-08-22T02:27:48.886Z,3.77
2022-08-22T02:30:41.947Z,3.30
2022-08-22T02:33:27.595Z,3.87
2022-08-22T02:36:11.521Z,3.72
2022-08-22T02:39:01.012Z,3.87
2022-08-22T02:41:40.877Z,3.67
2022-08-22T02:44:30.147Z,3.77
2022-08-22T02:47:32.408Z,4.40
2022-08-22T02:50:27.491Z,4.20
2022-08-22T02:53:23.840Z,4.10
2022-08-22T02:56:15.394Z,3.83
2022-08-22T02:59:16.553Z,4.05
2022-08-22T03:01:47.312Z,4.00
2022-08-22T03:04:43.390Z,4.20
2022-08-22T03:07:24.351Z,3.58
2022-08-22T03:10:24.047Z,3.62
2022-08-22T03:13:34.322Z,3.52
2022-08-22T03:16:18.047Z,4.00
2022-08-22T03:19:13.249Z,3.98
2022-08-22T03:21:57.962Z,3.90
2022-08-22T03:25:07.098Z,3.65
2022-08-22T03:27:54.624Z,3.52
2022-08-22T03:30:34.898Z,4.08
2022-08-22T03:33:25.943Z,4.28
2022-08-22T03:36:09.313Z,3.20
2022-08-22T03:38:49.913Z,3.70
2022-08-22T03:42:15.946Z,3.95
2022-08-22T03:45:28.528Z,3.50
2022-08-22T03:48:44.629Z,4.35
2022-08-22T03:51:33.352Z,3.50
2022-08-22T03:54:10.918Z,3.45
2022-08-22T03:57:08.105Z,3.50
2022-08-22T04:00:01.179Z,3.58
2022-08-22T04:03:03.464Z,3.22
2022-08-22T04:05:44.999Z,3.45
2022-08-22T04:08:54.587Z,3.83
2022-08-22T04:11:59.629Z,3.67
2022-08-22T04:14:49.163Z,3.72
2022-08-22T04:17:55.033Z,3.65
2022-08-22T04:20:59.159Z,3.42
2022-08-22T04:24:11.375Z,4.20
2022-08-22T04:26:56.914Z,3.25
2022-08-22T04:29:40.324Z,3.60
2022-08-22T04:32:20.041Z,3.95
2022-08-22T04:34:55.004Z,3.55
2022-08-22T04:37:30.023Z,3.17
2022-08-22T04:40:17.282Z,3.35
2022-08-22T04:42:51.251Z,3.80
2022-08-22T04:45:29.289Z,3.60
2022-08-22T04:48:18.877Z,3.47
2022-08-22T04:51:24.432Z,3.72
2022-08-22T04:54:14.133Z,3.50
2022-08-22T04:57:19.251Z,3.15
2022-08-22T04:59:49.360Z,3.22
2022-08-22T05:02:27.587Z,3.92
2022-08-22T05:05:05.200Z,3.60
2022-08-22T05:07:40.090Z,4.08
2022-08-22T05:10:20.396Z,3.35
2022-08-22T05:12:57.267Z,5.50
2022-08-22T05:15:43.369Z,3.58
2022-08-22T05:18:20.728Z,3.20
2022-08-22T05:20:50.089Z,3.12
2022-08-22T05:23:29.786Z,4.12
2022-08-22T05:26:01.296Z,2.95
2022-08-22T05:28:51.287Z,3.22
2022-08-22T05:31:29.359Z,3.87
2022-08-22T05:34:09.669Z,3.85
2022-08-22T05:36:57.427Z,4.20
2022-08-22T05:39:27.997Z,3.47
2022-08-22T05:42:01.715Z,3.65
2022-08-22T05:44:34.639Z,4.42
2022-08-22T05:47:15.251Z,3.50
2022-08-22T05:50:04.268Z,3.20
2022-08-22T05:52:48.536Z,2.95
2022-08-22T05:55:41.674Z,3.42
2022-08-22T05:58:43.591Z,3.15
2022-08-22T06:01:24.050Z,2.83
2022-08-22T06:04:28.854Z,4.53
2022-08-22T06:07:26.539Z,3.22
2022-08-22T06:10:21.681Z,3.02
2022-08-22T06:13:11.474Z,3.62
2022-08-22T06:15:53.761Z,3.55
2022-08-22T06:18:25.799Z,3.40
2022-08-22T06:21:04.064Z,3.22
2022-08-22T06:23:48.052Z,3.20
2022-08-22T06:26:20.645Z,3.27
2022-08-22T06:28:55.315Z,3.08
2022-08-22T06:31:32.422Z,3.77
2022-08-22T06:34:15.039Z,3.77
2022-08-22T06:36:48.674Z,5.05
2022-08-22T06:39:32.011Z,3.60
2022-08-22T06:42:14.624Z,3.90
2022-08-22T06:44:51.734Z,4.12
2022-08-22T06:47:30.182Z,4.20
2022-08-22T06:50:07.201Z,3.12
2022-08-22T06:53:08.203Z,3.08
2022-08-22T06:55:40.721Z,3.75
2022-08-22T06:58:17.516Z,3.35
2022-08-22T07:00:58.823Z,3.42
2022-08-22T07:03:36.637Z,3.35
2022-08-22T07:06:08.305Z,3.47
2022-08-22T07:08:39.286Z,4.12
2022-08-22T07:11:21.588Z,5.22
2022-08-22T07:14:06.339Z,3.17
2022-08-22T07:16:48.530Z,2.90
2022-08-22T07:19:34.102Z,3.25
2022-08-22T07:22:25.609Z,3.55
2022-08-22T07:25:00.172Z,5.42
2022-08-22T07:27:54.737Z,4.03
2022-08-22T07:30:27.406Z,3.50
2022-08-22T07:33:25.138Z,3.22
2022-08-22T07:35:43.426Z,3.42
2022-08-22T07:38:28.505Z,3.33
2022-08-22T07:41:13.021Z,4.60
2022-08-22T07:44:07.898Z,3.50
2022-08-22T07:46:42.289Z,3.92
2022-08-22T07:49:21.603Z,3.98
2022-08-22T07:52:02.051Z,3.80
2022-08-22T07:54:57.814Z,4.05
2022-08-22T07:57:31.929Z,4.08
2022-08-22T08:00:02.097Z,4.05
2022-08-22T08:02:34.699Z,3.52
2022-08-22T08:05:04.918Z,4.00
2022-08-22T08:07:34.446Z,3.67
2022-08-22T08:10:12.787Z,3.95
2022-08-22T08:12:41.470Z,4.17
2022-08-22T08:15:19.346Z,4.15
2022-08-22T08:17:58.117Z,3.60
2022-08-22T08:20:31.275Z,3.80
2022-08-22T08:23:01.070Z,3.47
2022-08-22T08:25:31.327Z,4.17
2022-08-22T08:28:18.825Z,4.15
2022-08-22T08:30:56.691Z,4.05
2022-08-22T08:33:27.994Z,3.55
2022-08-22T08:36:05.275Z,3.65
2022-08-22T08:38:48.155Z,3.95
2022-08-22T08:42:01.012Z,4.10
2022-08-22T08:45:09.751Z,3.95
2022-08-22T08:47:46.077Z,3.87
2022-08-22T08:50:37.660Z,3.42
2022-08-22T08:53:37.930Z,3.52
2022-08-22T09:00:09.756Z,3.47
2022-08-22T09:03:08.029Z,3.50
2022-08-22T09:06:00.261Z,3.30
2022-08-22T09:08:56.724Z,3.25
2022-08-22T09:12:02.034Z,3.65
2022-08-22T09:15:05.319Z,5.15
2022-08-22T09:18:10.543Z,3.50
2022-08-22T09:21:00.908Z,3.85
2022-08-22T09:24:04.804Z,3.22
2022-08-22T09:27:08.708Z,3.30
2022-08-22T09:29:51.437Z,3.45
2022-08-22T09:32:35.727Z,3.65
2022-08-22T09:38:18.171Z,4.12
2022-08-22T09:40:15.240Z,3.70
2022-08-22T09:41:08.857Z,3.52
2022-08-22T09:43:48.789Z,3.47
2022-08-22T09:46:32.129Z,3.75
2022-08-22T09:49:06.725Z,3.92
2022-08-22T09:51:57.936Z,3.52
2022-08-22T09:54:41.177Z,3.90
2022-08-22T09:57:41.160Z,3.52
2022-08-22T10:00:22.371Z,3.80
2022-08-22T10:03:02.586Z,4.00
2022-08-22T10:05:46.221Z,3.62
2022-08-22T10:08:35.491Z,3.77
2022-08-22T10:11:29.107Z,4.30
2022-08-22T10:14:24.230Z,4.78
2022-08-22T10:17:23.012Z,4.40
2022-08-22T10:20:13.919Z,4.25
2022-08-22T10:23:21.366Z,3.77
2022-08-22T10:25:54.281Z,4.67
2022-08-22T10:28:46.768Z,4.87
2022-08-22T10:31:58.367Z,5.70
2022-08-22T10:34:16.180Z,4.65
2022-08-22T10:37:08.332Z,5.42
2022-08-22T10:39:59.991Z,4.70
2022-08-22T10:42:45.155Z,4.85
2022-08-22T10:45:36.239Z,5.00
2022-08-22T10:48:34.160Z,5.00
2022-08-22T10:51:08.796Z,5.33
2022-08-22T10:53:55.979Z,4.97
2022-08-22T10:57:09.496Z,5.58
2022-08-22T10:59:48.210Z,4.90
2022-08-22T11:02:49.375Z,8.28
2022-08-22T11:05:41.711Z,5.55
2022-08-22T11:08:43.611Z,5.37
2022-08-22T11:11:56.989Z,5.80
2022-08-22T11:14:31.727Z,7.03
2022-08-22T11:17:32.421Z,11.75
2022-08-22T11:20:23.386Z,6.20
2022-08-22T11:23:21.360Z,5.70
2022-08-22T11:26:15.224Z,5.75
2022-08-22T11:28:57.747Z,5.05
2022-08-22T11:31:52.181Z,6.45
2022-08-22T11:34:56.057Z,6.03
2022-08-22T11:38:03.081Z,5.90
2022-08-22T11:40:39.933Z,6.37
2022-08-22T11:43:36.258Z,6.97
2022-08-22T11:46:26.167Z,7.20
2022-08-22T11:49:33.055Z,6.47
2022-08-22T11:52:25.458Z,6.40
2022-08-22T11:55:08.657Z,7.95
2022-08-22T11:57:51.847Z,7.97
2022-08-22T12:00:41.202Z,8.20
2022-08-22T12:03:39.137Z,8.63
2022-08-22T12:06:41.056Z,7.80
2022-08-22T12:09:35.587Z,7.00
2022-08-22T12:12:45.523Z,7.55
2022-08-22T12:18:34.622Z,7.42
2022-08-22T12:21:45.089Z,7.40
2022-08-22T12:24:26.552Z,7.40
2022-08-22T12:27:00.849Z,8.23
2022-08-22T12:29:48.564Z,8.10
2022-08-22T12:33:06.246Z,7.53
2022-08-22T12:36:05.322Z,7.47
2022-08-22T12:38:53.562Z,8.15
2022-08-22T12:41:46.472Z,6.90
2022-08-22T12:44:40.272Z,7.03
2022-08-22T12:47:35.531Z,7.67
2022-08-22T12:50:39.100Z,7.15
2022-08-22T12:53:26.301Z,6.87
2022-08-22T12:56:23.796Z,6.92
2022-08-22T12:59:17.740Z,6.92
2022-08-22T13:01:49.608Z,7.97
2022-08-22T13:04:33.053Z,7.78
2022-08-22T13:07:08.856Z,7.15
2022-08-22T13:09:43.426Z,7.10
2022-08-22T13:12:28.011Z,8.33
2022-08-22T13:15:10.728Z,7.22
2022-08-22T13:17:41.523Z,7.15
2022-08-22T13:20:34.927Z,7.28
2022-08-22T13:23:11.071Z,7.50
2022-08-22T13:26:32.964Z,8.28
2022-08-22T13:29:24.688Z,6.62
2022-08-22T13:31:35.957Z,6.40
2022-08-22T13:34:22.884Z,7.15
2022-08-22T13:36:55.278Z,6.45
2022-08-22T13:39:35.757Z,6.40
2022-08-22T13:42:14.196Z,6.67
2022-08-22T13:44:46.144Z,6.62
2022-08-22T13:47:18.516Z,5.78
2022-08-22T13:49:53.572Z,5.92
2022-08-22T13:52:38.196Z,6.75
2022-08-22T13:55:42.985Z,6.78
2022-08-22T13:58:44.802Z,6.08
2022-08-22T14:01:46.909Z,6.20
2022-08-22T14:04:33.415Z,6.35
2022-08-22T14:07:06.482Z,6.12
2022-08-22T14:09:50.165Z,5.28
2022-08-22T14:12:22.509Z,5.78
2022-08-22T14:15:00.745Z,5.20
2022-08-22T14:17:42.671Z,4.58
2022-08-22T14:20:32.307Z,4.90
2022-08-22T14:23:04.721Z,5.42
2022-08-22T14:25:40.807Z,4.97
2022-08-22T14:28:27.717Z,5.28
2022-08-22T14:31:02.931Z,5.20
2022-08-22T14:33:42.293Z,5.62
2022-08-22T14:36:19.417Z,4.97
2022-08-22T14:39:01.451Z,4.78
2022-08-22T14:41:55.729Z,5.25
2022-08-22T14:44:09.670Z,4.97
2022-08-22T14:46:59.401Z,5.42
2022-08-22T14:49:55.170Z,5.90
2022-08-22T14:52:42.482Z,5.80
2022-08-22T14:55:22.599Z,4.77
2022-08-22T14:57:59.737Z,4.85
2022-08-22T15:00:34.802Z,4.67
2022-08-22T15:03:26.586Z,5.90
2022-08-22T15:06:02.556Z,5.10
2022-08-22T15:08:49.421Z,4.37
2022-08-22T15:11:23.066Z,4.83
2022-08-22T15:14:06.826Z,4.33
2022-08-22T15:16:52.371Z,5.22
2022-08-22T15:19:27.276Z,5.50
2022-08-22T15:22:25.722Z,5.53
2022-08-22T15:25:22.324Z,5.05
2022-08-22T15:28:05.523Z,4.62
2022-08-22T15:31:03.430Z,4.92
2022-08-22T15:36:16.312Z,5.17
2022-08-22T15:38:49.699Z,5.15
2022-08-22T15:41:31.290Z,5.28
2022-08-22T15:44:32.207Z,5.30
2022-08-22T15:47:02.878Z,5.47
2022-08-22T15:49:37.208Z,5.33
2022-08-22T15:52:19.997Z,5.42
2022-08-22T15:55:00.529Z,5.28
2022-08-22T15:57:34.783Z,5.12
2022-08-22T16:00:28.088Z,5.58
2022-08-22T16:03:08.329Z,5.78
2022-08-22T16:05:54.968Z,6.37
2022-08-22T16:08:27.208Z,5.67
2022-08-22T16:11:21.135Z,6.60
2022-08-22T16:14:10.878Z,5.67
2022-08-22T16:16:57.345Z,5.85
2022-08-22T16:19:29.271Z,6.25
2022-08-22T16:22:03.260Z,5.85
2022-08-22T16:24:36.837Z,6.70
2022-08-22T16:27:20.830Z,6.40
2022-08-22T16:29:52.197Z,6.45
2022-08-22T16:32:28.282Z,5.65
2022-08-22T16:34:57.912Z,6.50
2022-08-22T16:37:44.918Z,5.78
2022-08-22T16:40:21.538Z,5.30
2022-08-22T16:45:45.502Z,5.33
2022-08-22T16:48:23.666Z,5.67
2022-08-22T16:51:06.517Z,6.03
2022-08-22T16:54:03.068Z,7.42
2022-08-22T16:56:58.367Z,5.87
2022-08-22T16:59:38.279Z,5.47
2022-08-22T17:02:28.964Z,5.42
2022-08-22T17:05:12.078Z,5.95
2022-08-22T17:08:08.210Z,5.37
2022-08-22T17:10:49.196Z,6.30
2022-08-22T17:13:27.483Z,5.90
2022-08-22T17:16:27.203Z,5.78
2022-08-22T17:19:39.578Z,6.62
2022-08-22T17:22:35.800Z,6.05
2022-08-22T17:25:48.729Z,7.03
2022-08-22T17:28:53.842Z,6.28
2022-08-22T17:31:35.116Z,6.08
2022-08-22T17:34:21.597Z,5.67
2022-08-22T17:37:10.719Z,6.05
2022-08-22T17:40:15.679Z,5.45
2022-08-22T17:43:15.982Z,4.70
2022-08-22T17:46:17.954Z,6.20
2022-08-22T17:49:13.819Z,6.17
2022-08-22T17:51:57.455Z,5.83
2022-08-22T17:54:52.740Z,5.22
2022-08-22T17:57:30.002Z,5.50
2022-08-22T18:00:19.310Z,5.65
2022-08-22T18:02:58.787Z,5.67
2022-08-22T18:05:32.573Z,6.00
2022-08-22T18:09:13.331Z,5.45
2022-08-22T18:11:14.877Z,5.28
2022-08-22T18:14:18.697Z,5.87
2022-08-22T18:16:52.019Z,5.78
2022-08-22T18:19:55.504Z,5.72
2022-08-22T18:23:08.381Z,5.50
2022-08-22T18:25:45.984Z,5.25
2022-08-22T18:28:27.763Z,5.53
2022-08-22T18:31:40.252Z,6.20
2022-08-22T18:34:20.933Z,5.28
2022-08-22T18:37:16.933Z,5.42
2022-08-22T18:40:11.625Z,5.37
2022-08-22T18:42:55.769Z,4.97
2022-08-22T18:45:50.111Z,6.22
2022-08-22T18:48:36.718Z,6.62
2022-08-22T18:51:29.572Z,5.85
2022-08-22T18:54:12.627Z,5.45
2022-08-22T18:56:50.138Z,6.62
2022-08-22T18:59:36.790Z,6.45
2022-08-22T19:02:29.197Z,5.93
2022-08-22T19:05:25.165Z,5.97
2022-08-22T19:08:28.274Z,5.83
2022-08-22T19:11:27.605Z,5.87
2022-08-22T19:14:05.852Z,5.55
2022-08-22T19:16:58.669Z,5.67
2022-08-22T19:20:10.539Z,4.83
2022-08-22T19:22:41.109Z,5.30
2022-08-22T19:25:23.953Z,5.08
2022-08-22T19:28:16.667Z,4.80
2022-08-22T19:30:56.001Z,4.58
2022-08-22T19:33:34.536Z,4.95
2022-08-22T19:36:12.525Z,4.85
2022-08-22T19:39:09.055Z,5.03
2022-08-22T19:41:54.629Z,4.65
2022-08-22T19:44:39.011Z,4.70
2022-08-22T19:47:21.239Z,4.80
2022-08-22T19:50:18.643Z,4.72
2022-08-22T19:53:38.293Z,4.83
2022-08-22T19:56:35.567Z,4.33
2022-08-22T19:59:21.529Z,4.83
2022-08-22T20:02:38.920Z,4.35
2022-08-22T20:05:27.674Z,5.72
2022-08-22T20:08:17.971Z,4.47
2022-08-22T20:11:15.080Z,4.20
2022-08-22T20:13:46.810Z,4.65
2022-08-22T20:16:26.189Z,4.03
2022-08-22T20:19:09.310Z,4.67
2022-08-22T20:21:46.950Z,4.83
2022-08-22T20:24:37.737Z,3.92
2022-08-22T20:27:14.485Z,3.95
2022-08-22T20:29:50.981Z,4.30
2022-08-22T20:32:22.991Z,4.62
2022-08-22T20:34:56.669Z,3.80
2022-08-22T20:38:05.277Z,4.47
2022-08-22T20:40:53.556Z,4.67
2022-08-22T20:42:54.686Z,7.50
2022-08-22T20:45:25.582Z,4.47
2022-08-22T20:47:58.627Z,5.67
2022-08-22T20:50:29.388Z,6.03
2022-08-22T20:53:15.078Z,4.45
2022-08-22T20:55:55.071Z,4.22
2022-08-22T20:58:28.308Z,4.33
2022-08-22T21:01:01.278Z,4.00
2022-08-22T21:03:48.553Z,4.58
2022-08-22T21:06:31.471Z,4.45
2022-08-22T21:09:37.933Z,4.45
2022-08-22T21:12:09.682Z,4.20
2022-08-22T21:14:41.367Z,4.30
2022-08-22T21:17:26.841Z,5.12
2022-08-22T21:19:59.013Z,4.33
2022-08-22T21:22:32.640Z,4.22
2022-08-22T21:25:01.783Z,4.62
2022-08-22T21:27:33.687Z,4.17
2022-08-22T21:30:07.604Z,4.47
2022-08-22T21:32:42.368Z,5.00
2022-08-22T21:35:29.194Z,4.83
2022-08-22T21:37:59.473Z,4.57
2022-08-22T21:40:39.337Z,3.77
2022-08-22T21:43:13.456Z,4.42
2022-08-22T21:45:44.945Z,4.70
2022-08-22T21:48:38.070Z,3.95
2022-08-22T21:51:31.542Z,4.22
2022-08-22T21:54:29.008Z,3.87
2022-08-22T21:57:13.658Z,4.58
2022-08-22T21:59:59.831Z,4.83
2022-08-22T22:02:42.050Z,4.30
2022-08-22T22:05:17.135Z,4.80
2022-08-22T22:07:47.087Z,4.08
2022-08-22T22:10:19.876Z,4.37
2022-08-22T22:12:49.438Z,4.50
2022-08-22T22:15:24.094Z,4.72
2022-08-22T22:17:54.753Z,3.75
2022-08-22T22:20:25.983Z,4.40
2022-08-22T22:22:55.560Z,4.72
2022-08-22T22:25:40.853Z,4.75
2022-08-22T22:27:59.009Z,4.20
2022-08-22T22:33:08.033Z,5.20
2022-08-22T22:35:39.719Z,4.67
2022-08-22T22:38:09.005Z,4.40
2022-08-22T22:40:38.247Z,4.50
2022-08-22T22:43:08.607Z,4.20
2022-08-22T22:45:38.644Z,4.70
2022-08-22T22:48:08.432Z,4.50
2022-08-22T22:50:39.971Z,4.83
2022-08-22T22:53:09.561Z,4.05
2022-08-22T22:55:41.698Z,4.10
2022-08-22T22:58:10.593Z,4.60
2022-08-22T23:00:40.895Z,4.50
2022-08-22T23:03:10.020Z,4.70
2022-08-22T23:05:40.153Z,4.08
2022-08-22T23:08:09.980Z,4.25
2022-08-22T23:10:39.690Z,3.83
2022-08-22T23:13:10.821Z,3.95
2022-08-22T23:15:41.714Z,3.90
2022-08-22T23:18:11.790Z,3.90
2022-08-22T23:20:42.250Z,4.15
2022-08-22T23:23:12.777Z,3.77
2022-08-22T23:25:42.642Z,3.90
2022-08-22T23:28:12.911Z,4.20
2022-08-22T23:30:43.682Z,4.30
2022-08-22T23:33:14.145Z,3.77
2022-08-22T23:35:44.442Z,3.70
2022-08-22T23:38:14.540Z,3.70
2022-08-22T23:40:45.709Z,3.58
2022-08-22T23:43:16.143Z,4.03
2022-08-22T23:45:47.012Z,3.58
2022-08-22T23:48:16.132Z,3.22
2022-08-22T23:50:46.174Z,3.90
2022-08-22T23:53:15.020Z,3.50
2022-08-22T23:55:43.625Z,3.45
2022-08-22T23:58:12.677Z,3.27
